createdAt,value
2022-08-20T00:02:16.471Z,18.30
2022-08-20T00:04:45.647Z,18.30
2022-08-20T00:07:14.569Z,18.20
2022-08-20T00:09:44.790Z,18.20
2022-08-20T00:12:18.041Z,18.20
2022-08-20T00:14:46.172Z,18.20
2022-08-20T00:17:14.300Z,18.20
2022-08-20T00:19:42.591Z,18.30
2022-08-20T00:22:11.117Z,18.20
2022-08-20T00:24:39.215Z,18.20
2022-08-20T00:27:10.205Z,18.20
2022-08-20T00:29:38.448Z,18.10
2022-08-20T00:32:06.770Z,18.10
2022-08-20T00:34:34.889Z,18.20
2022-08-20T00:37:04.329Z,18.10
2022-08-20T00:39:32.427Z,18.20
2022-08-20T00:42:00.557Z,18.20
2022-08-20T00:44:30.925Z,18.20
2022-08-20T00:46:59.208Z,18.30
2022-08-20T00:49:31.786Z,18.30
2022-08-20T00:52:07.520Z,18.40
2022-08-20T00:54:40.532Z,18.30
2022-08-20T00:57:14.208Z,18.40
2022-08-20T00:59:44.913Z,18.30
2022-08-20T01:02:17.635Z,18.30
2022-08-20T01:04:48.210Z,18.40
2022-08-20T01:07:16.386Z,18.40
2022-08-20T01:09:58.194Z,18.30
2022-08-20T01:12:30.821Z,18.30
2022-08-20T01:15:03.839Z,18.20
2022-08-20T01:17:41.735Z,18.20
2022-08-20T01:20:19.409Z,18.20
2022-08-20T01:23:14.698Z,18.10
2022-08-20T01:25:50.452Z,18.10
2022-08-20T01:28:25.651Z,18.10
2022-08-20T01:30:54.977Z,18.10
2022-08-20T01:33:24.934Z,18.10
2022-08-20T01:35:54.990Z,18.10
2022-08-20T01:38:23.936Z,18.10
2022-08-20T01:41:46.554Z,18.00
2022-08-20T01:44:16.720Z,18.10
2022-08-20T01:46:50.530Z,18.00
2022-08-20T01:49:24.787Z,18.00
2022-08-20T01:51:57.832Z,18.10
2022-08-20T01:54:27.122Z,18.10
2022-08-20T01:57:03.343Z,18.10
2022-08-20T01:59:31.868Z,18.10
2022-08-20T02:02:02.205Z,18.10
2022-08-20T02:04:31.241Z,18.00
2022-08-20T02:07:04.171Z,18.00
2022-08-20T02:09:36.462Z,18.00
2022-08-20T02:12:10.615Z,18.10
2022-08-20T02:14:44.111Z,18.10
2022-08-20T02:17:14.367Z,18.10
2022-08-20T02:19:49.066Z,18.20
2022-08-20T02:22:23.477Z,18.10
2022-08-20T02:24:52.494Z,18.20
2022-08-20T02:27:23.856Z,18.20
2022-08-20T02:29:53.018Z,18.10
2022-08-20T02:32:32.689Z,18.20
2022-08-20T02:35:03.753Z,18.30
2022-08-20T02:37:32.433Z,18.30
2022-08-20T02:40:01.471Z,18.30
2022-08-20T02:42:31.168Z,18.30
2022-08-20T02:44:59.435Z,18.40
2022-08-20T02:47:28.791Z,18.50
2022-08-20T02:49:57.948Z,18.40
2022-08-20T02:52:26.878Z,18.50
2022-08-20T02:54:55.019Z,18.60
2022-08-20T02:57:23.153Z,18.60
2022-08-20T02:59:53.388Z,18.70
2022-08-20T03:02:21.621Z,18.80
2022-08-20T03:04:49.976Z,18.70
2022-08-20T03:07:18.843Z,18.70
2022-08-20T03:09:46.914Z,18.70
2022-08-20T03:12:15.480Z,18.70
2022-08-20T03:14:43.775Z,18.70
2022-08-20T03:17:13.650Z,18.70
2022-08-20T03:19:41.777Z,18.70
2022-08-20T03:22:09.969Z,18.70
2022-08-20T03:24:38.149Z,18.70
2022-08-20T03:27:07.020Z,18.60
2022-08-20T03:29:35.559Z,18.60
2022-08-20T03:32:07.575Z,18.50
2022-08-20T03:34:37.325Z,18.50
2022-08-20T03:37:05.619Z,18.30
2022-08-20T03:39:33.813Z,18.30
2022-08-20T03:42:02.408Z,18.30
2022-08-20T03:44:30.622Z,18.30
2022-08-20T03:46:58.992Z,18.30
2022-08-20T03:49:27.100Z,18.30
2022-08-20T03:51:58.032Z,18.30
2022-08-20T03:54:31.490Z,18.30
2022-08-20T03:57:02.718Z,18.30
2022-08-20T03:59:41.449Z,18.30
2022-08-20T04:02:11.156Z,18.20
2022-08-20T04:04:40.710Z,18.20
2022-08-20T04:07:20.544Z,18.20
2022-08-20T04:09:48.624Z,18.20
2022-08-20T04:12:16.694Z,18.20
2022-08-20T04:14:45.006Z,18.10
2022-08-20T04:17:14.909Z,18.10
2022-08-20T04:19:44.341Z,18.10
2022-08-20T04:22:15.199Z,18.00
2022-08-20T04:24:44.398Z,18.10
2022-08-20T04:27:14.708Z,18.00
2022-08-20T04:29:44.566Z,17.90
2022-08-20T04:32:12.636Z,17.80
2022-08-20T04:34:40.966Z,17.70
2022-08-20T04:37:17.334Z,17.50
2022-08-20T04:40:07.048Z,17.50
2022-08-20T04:42:38.002Z,17.40
2022-08-20T04:45:09.352Z,17.40
2022-08-20T04:47:37.488Z,17.40
2022-08-20T04:50:09.923Z,17.40
2022-08-20T04:52:39.066Z,17.40
2022-08-20T04:55:11.403Z,17.30
2022-08-20T04:57:39.566Z,17.30
2022-08-20T05:00:14.240Z,17.20
2022-08-20T05:02:43.169Z,17.10
2022-08-20T05:05:12.354Z,17.10
2022-08-20T05:07:43.758Z,17.10
2022-08-20T05:10:18.318Z,17.10
2022-08-20T05:12:56.686Z,17.00
2022-08-20T05:15:26.094Z,17.00
2022-08-20T05:18:00.902Z,17.00
2022-08-20T05:20:31.345Z,17.00
2022-08-20T05:22:59.631Z,17.00
2022-08-20T05:25:30.354Z,17.10
2022-08-20T05:28:00.736Z,17.60
2022-08-20T05:30:33.559Z,18.70
2022-08-20T05:33:04.603Z,19.70
2022-08-20T05:35:39.372Z,20.60
2022-08-20T05:38:11.738Z,21.00
2022-08-20T05:40:43.457Z,20.30
2022-08-20T05:43:12.291Z,19.50
2022-08-20T05:45:42.667Z,19.10
2022-08-20T05:48:15.200Z,18.90
2022-08-20T05:50:49.118Z,18.90
2022-08-20T05:53:18.961Z,19.20
2022-08-20T05:55:49.446Z,19.70
2022-08-20T05:58:22.901Z,19.90
2022-08-20T06:00:53.672Z,19.80
2022-08-20T06:03:40.006Z,20.30
2022-08-20T06:06:17.859Z,20.30
2022-08-20T06:08:56.746Z,20.60
2022-08-20T06:11:26.276Z,20.30
2022-08-20T06:13:54.517Z,20.50
2022-08-20T06:16:22.636Z,21.30
2022-08-20T06:18:58.248Z,21.50
2022-08-20T06:21:26.640Z,21.30
2022-08-20T06:23:58.169Z,22.10
2022-08-20T06:26:31.005Z,22.60
2022-08-20T06:28:59.724Z,23.30
2022-08-20T06:31:28.450Z,23.40
2022-08-20T06:33:57.086Z,23.10
2022-08-20T06:36:26.147Z,22.30
2022-08-20T06:38:54.890Z,22.50
2022-08-20T06:41:23.030Z,22.70
2022-08-20T06:44:07.601Z,22.70
2022-08-20T06:46:36.452Z,23.40
2022-08-20T06:49:05.985Z,23.50
2022-08-20T06:51:35.237Z,23.80
2022-08-20T06:54:03.287Z,23.50
2022-08-20T06:56:31.436Z,23.30
2022-08-20T06:59:01.491Z,23.80
2022-08-20T07:01:30.931Z,25.40
2022-08-20T07:04:00.328Z,26.30
2022-08-20T07:06:28.854Z,27.40
2022-08-20T07:08:57.338Z,26.20
2022-08-20T07:11:28.279Z,23.90
2022-08-20T07:13:57.973Z,22.10
2022-08-20T07:16:26.667Z,21.10
2022-08-20T07:18:56.453Z,20.70
2022-08-20T07:21:24.780Z,20.50
2022-08-20T07:23:53.406Z,20.30
2022-08-20T07:26:21.840Z,20.20
2022-08-20T07:28:50.415Z,20.00
2022-08-20T07:31:36.011Z,19.90
2022-08-20T07:34:06.557Z,19.90
2022-08-20T07:36:35.444Z,20.10
2022-08-20T07:39:05.865Z,20.00
2022-08-20T07:41:34.481Z,20.40
2022-08-20T07:44:02.852Z,22.00
2022-08-20T07:46:31.725Z,23.50
2022-08-20T07:49:00.587Z,23.40
2022-08-20T07:51:30.114Z,22.80
2022-08-20T07:54:00.065Z,23.60
2022-08-20T07:56:28.571Z,24.80
2022-08-20T07:58:59.369Z,24.00
2022-08-20T08:01:31.224Z,24.00
2022-08-20T08:04:00.848Z,24.40
2022-08-20T08:06:32.682Z,24.50
2022-08-20T08:09:06.261Z,25.80
2022-08-20T08:11:39.037Z,26.90
2022-08-20T08:14:11.002Z,27.00
2022-08-20T08:16:39.849Z,27.40
2022-08-20T08:19:12.069Z,26.40
2022-08-20T08:21:42.347Z,25.50
2022-08-20T08:24:12.731Z,25.70
2022-08-20T08:26:42.543Z,26.60
2022-08-20T08:29:12.083Z,26.50
2022-08-20T08:31:41.026Z,26.80
2022-08-20T08:34:09.239Z,26.90
2022-08-20T08:36:39.289Z,26.80
2022-08-20T08:39:08.832Z,26.90
2022-08-20T08:41:49.420Z,27.60
2022-08-20T08:44:23.362Z,28.70
2022-08-20T08:47:02.834Z,28.80
2022-08-20T08:49:38.403Z,29.10
2022-08-20T08:52:14.681Z,28.70
2022-08-20T08:54:49.479Z,26.80
2022-08-20T08:57:18.575Z,27.40
2022-08-20T09:00:04.840Z,27.70
2022-08-20T09:02:36.338Z,26.80
2022-08-20T09:05:15.899Z,26.10
2022-08-20T09:07:51.136Z,25.80
2022-08-20T09:10:23.483Z,26.70
2022-08-20T09:12:52.333Z,26.40
2022-08-20T09:15:21.740Z,26.00
2022-08-20T09:17:50.078Z,27.40
2022-08-20T09:20:19.259Z,28.30
2022-08-20T09:22:47.311Z,28.70
2022-08-20T09:25:16.946Z,29.50
2022-08-20T09:27:46.974Z,30.40
2022-08-20T09:30:18.479Z,29.60
2022-08-20T09:32:46.972Z,28.10
2022-08-20T09:35:15.511Z,28.20
2022-08-20T09:37:43.881Z,28.70
2022-08-20T09:40:14.124Z,29.30
2022-08-20T09:42:51.407Z,29.00
2022-08-20T09:45:20.892Z,28.10
2022-08-20T09:47:56.640Z,26.80
2022-08-20T09:50:26.882Z,26.70
2022-08-20T09:52:58.477Z,27.30
2022-08-20T09:55:34.577Z,27.90
2022-08-20T09:58:08.722Z,27.80
2022-08-20T10:00:36.907Z,28.50
2022-08-20T10:03:05.138Z,28.50
2022-08-20T10:05:33.181Z,28.60
2022-08-20T10:08:01.302Z,28.20
2022-08-20T10:10:29.509Z,27.90
2022-08-20T10:12:57.560Z,27.60
2022-08-20T10:15:27.411Z,27.40
2022-08-20T10:17:57.209Z,28.60
2022-08-20T10:20:26.656Z,29.40
2022-08-20T10:22:54.688Z,29.70
2022-08-20T10:25:22.927Z,29.00
2022-08-20T10:27:51.226Z,29.40
2022-08-20T10:30:19.474Z,29.70
2022-08-20T10:32:49.413Z,29.50
2022-08-20T10:35:18.038Z,28.80
2022-08-20T10:37:46.316Z,28.50
2022-08-20T10:40:16.636Z,28.90
2022-08-20T10:42:45.619Z,28.90
2022-08-20T10:45:17.073Z,28.80
2022-08-20T10:47:45.829Z,28.60
2022-08-20T10:50:19.914Z,30.30
2022-08-20T10:52:48.259Z,31.60
2022-08-20T10:55:16.739Z,33.10
2022-08-20T10:57:46.058Z,32.70
2022-08-20T11:00:19.260Z,32.40
2022-08-20T11:02:47.608Z,33.60
2022-08-20T11:05:17.334Z,33.20
2022-08-20T11:07:59.740Z,34.00
2022-08-20T11:10:30.861Z,35.10
2022-08-20T11:12:59.062Z,34.80
2022-08-20T11:15:27.432Z,33.60
2022-08-20T11:17:56.397Z,33.10
2022-08-20T11:20:27.354Z,33.90
2022-08-20T11:22:56.227Z,32.10
2022-08-20T11:25:24.884Z,30.10
2022-08-20T11:27:55.044Z,29.90
2022-08-20T11:30:26.311Z,31.00
2022-08-20T11:32:54.860Z,31.30
2022-08-20T11:35:43.279Z,30.90
2022-08-20T11:38:13.376Z,29.70
2022-08-20T11:40:41.449Z,30.60
2022-08-20T11:43:17.788Z,32.20
2022-08-20T11:45:49.680Z,33.00
2022-08-20T11:48:18.085Z,34.40
2022-08-20T11:50:47.183Z,34.20
2022-08-20T11:53:17.097Z,33.70
2022-08-20T11:55:45.635Z,33.80
2022-08-20T11:58:13.795Z,33.60
2022-08-20T12:00:42.487Z,33.80
2022-08-20T12:03:11.846Z,33.90
2022-08-20T12:05:44.103Z,33.40
2022-08-20T12:08:27.554Z,33.80
2022-08-20T12:10:57.679Z,34.70
2022-08-20T12:13:30.935Z,34.50
2022-08-20T12:16:14.105Z,34.10
2022-08-20T12:18:42.565Z,33.60
2022-08-20T12:21:10.618Z,32.30
2022-08-20T12:23:40.203Z,32.20
2022-08-20T12:26:08.701Z,32.00
2022-08-20T12:28:36.859Z,32.20
2022-08-20T12:31:05.068Z,32.80
2022-08-20T12:33:33.163Z,32.90
2022-08-20T12:36:01.463Z,33.30
2022-08-20T12:38:29.663Z,33.70
2022-08-20T12:40:59.079Z,33.00
2022-08-20T12:43:27.152Z,32.40
2022-08-20T12:45:55.798Z,32.40
2022-08-20T12:48:23.948Z,31.80
2022-08-20T12:50:52.769Z,31.30
2022-08-20T12:53:21.001Z,31.20
2022-08-20T12:55:49.069Z,31.30
2022-08-20T12:58:19.269Z,31.70
2022-08-20T13:00:51.020Z,32.70
2022-08-20T13:03:21.412Z,33.10
2022-08-20T13:05:50.670Z,32.80
2022-08-20T13:08:19.486Z,31.50
2022-08-20T13:10:48.729Z,31.30
2022-08-20T13:13:20.816Z,31.20
2022-08-20T13:15:50.840Z,31.40
2022-08-20T13:18:19.168Z,31.50
2022-08-20T13:20:48.027Z,31.90
2022-08-20T13:23:16.159Z,32.40
2022-08-20T13:25:44.399Z,32.80
2022-08-20T13:28:12.595Z,33.50
2022-08-20T13:30:42.035Z,34.00
2022-08-20T13:33:10.502Z,33.30
2022-08-20T13:35:38.675Z,33.00
2022-08-20T13:38:07.051Z,32.20
2022-08-20T13:40:35.535Z,31.90
2022-08-20T13:43:07.035Z,31.80
2022-08-20T13:45:37.038Z,31.80
2022-08-20T13:48:15.267Z,32.00
2022-08-20T13:50:46.898Z,31.90
2022-08-20T13:53:15.732Z,31.90
2022-08-20T13:55:43.974Z,32.00
2022-08-20T13:58:12.028Z,32.30
2022-08-20T14:00:40.193Z,32.50
2022-08-20T14:03:09.712Z,32.70
2022-08-20T14:05:39.335Z,33.30
2022-08-20T14:08:11.519Z,33.60
2022-08-20T14:10:42.720Z,33.20
2022-08-20T14:13:15.344Z,33.00
2022-08-20T14:15:46.140Z,33.10
2022-08-20T14:18:17.722Z,32.50
2022-08-20T14:20:46.390Z,31.90
2022-08-20T14:23:15.416Z,31.10
2022-08-20T14:25:48.260Z,30.60
2022-08-20T14:28:19.863Z,30.70
2022-08-20T14:30:53.244Z,30.90
2022-08-20T14:33:24.548Z,31.00
2022-08-20T14:35:53.382Z,31.10
2022-08-20T14:38:21.574Z,31.10
2022-08-20T14:40:50.533Z,31.40
2022-08-20T14:43:19.167Z,31.40
2022-08-20T14:45:47.320Z,31.50
2022-08-20T14:48:15.950Z,31.50
2022-08-20T14:50:45.757Z,31.40
2022-08-20T14:53:13.799Z,31.20
2022-08-20T14:55:41.929Z,31.10
2022-08-20T14:58:12.435Z,31.10
2022-08-20T15:00:42.175Z,31.20
2022-08-20T15:03:10.633Z,31.20
2022-08-20T15:05:39.548Z,31.30
2022-08-20T15:08:11.004Z,30.90
2022-08-20T15:10:40.388Z,30.80
2022-08-20T15:13:09.221Z,30.40
2022-08-20T15:15:37.531Z,30.30
2022-08-20T15:18:05.799Z,30.10
2022-08-20T15:20:37.004Z,29.70
2022-08-20T15:23:06.035Z,29.70
2022-08-20T15:25:38.136Z,29.80
2022-08-20T15:28:09.246Z,30.00
2022-08-20T15:30:40.976Z,30.20
2022-08-20T15:33:09.817Z,30.50
2022-08-20T15:35:38.074Z,30.80
2022-08-20T15:38:06.515Z,30.80
2022-08-20T15:40:36.568Z,30.70
2022-08-20T15:43:06.332Z,30.50
2022-08-20T15:45:36.422Z,30.50
2022-08-20T15:48:13.000Z,30.60
2022-08-20T15:51:14.788Z,30.40
2022-08-20T15:53:56.565Z,30.30
2022-08-20T15:56:51.682Z,30.40
2022-08-20T15:59:45.605Z,30.10
2022-08-20T16:02:47.805Z,29.70
2022-08-20T16:05:28.634Z,29.60
2022-08-20T16:08:14.788Z,29.50
2022-08-20T16:10:58.928Z,29.40
2022-08-20T16:13:46.108Z,29.10
2022-08-20T16:16:22.874Z,29.00
2022-08-20T16:18:54.210Z,28.90
2022-08-20T16:21:31.590Z,28.90
2022-08-20T16:24:00.119Z,29.00
2022-08-20T16:27:01.241Z,28.90
2022-08-20T16:29:50.979Z,28.70
2022-08-20T16:32:35.102Z,28.70
2022-08-20T16:35:28.991Z,28.80
2022-08-20T16:38:08.924Z,28.50
2022-08-20T16:40:49.693Z,28.40
2022-08-20T16:43:27.533Z,28.00
2022-08-20T16:46:05.435Z,27.50
2022-08-20T16:48:41.879Z,27.40
2022-08-20T16:51:20.013Z,27.40
2022-08-20T16:53:48.097Z,27.50
2022-08-20T16:56:16.343Z,27.40
2022-08-20T16:58:46.335Z,27.40
2022-08-20T17:01:16.451Z,27.30
2022-08-20T17:03:52.147Z,27.30
2022-08-20T17:06:29.451Z,27.30
2022-08-20T17:08:57.777Z,27.40
2022-08-20T17:11:33.054Z,27.70
2022-08-20T17:14:12.546Z,27.70
2022-08-20T17:16:48.467Z,27.70
2022-08-20T17:19:27.088Z,27.80
2022-08-20T17:21:56.419Z,27.80
2022-08-20T17:24:29.135Z,27.60
2022-08-20T17:27:04.295Z,27.40
2022-08-20T17:29:51.666Z,27.20
2022-08-20T17:32:25.746Z,27.00
2022-08-20T17:34:57.292Z,26.90
2022-08-20T17:37:33.461Z,26.90
2022-08-20T17:40:10.555Z,26.90
2022-08-20T17:42:51.053Z,26.90
2022-08-20T17:45:25.939Z,26.80
2022-08-20T17:48:00.606Z,26.60
2022-08-20T17:50:34.178Z,26.40
2022-08-20T17:53:21.195Z,26.20
2022-08-20T17:55:58.525Z,26.00
2022-08-20T17:58:54.041Z,25.80
2022-08-20T18:01:25.725Z,25.60
2022-08-20T18:03:55.775Z,25.40
2022-08-20T18:06:32.558Z,25.30
2022-08-20T18:09:10.839Z,25.10
2022-08-20T18:11:53.685Z,24.90
2022-08-20T18:14:47.097Z,24.80
2022-08-20T18:18:00.668Z,24.60
2022-08-20T18:21:07.095Z,24.40
2022-08-20T18:23:42.121Z,24.00
2022-08-20T18:26:25.076Z,23.70
2022-08-20T18:29:00.158Z,23.30
2022-08-20T18:31:34.444Z,22.90
2022-08-20T18:34:13.230Z,22.70
2022-08-20T18:36:43.028Z,22.50
2022-08-20T18:39:26.811Z,22.30
2022-08-20T18:42:02.078Z,22.10
2022-08-20T18:44:40.135Z,22.00
2022-08-20T18:47:23.374Z,21.90
2022-08-20T18:50:06.369Z,21.70
2022-08-20T18:52:48.684Z,21.70
2022-08-20T18:55:32.005Z,21.60
2022-08-20T18:58:04.763Z,21.30
2022-08-20T19:00:41.361Z,21.40
2022-08-20T19:03:27.308Z,21.20
2022-08-20T19:06:14.147Z,21.00
2022-08-20T19:08:51.623Z,20.70
2022-08-20T19:11:51.113Z,20.50
2022-08-20T19:14:36.791Z,20.40
2022-08-20T19:17:12.143Z,20.20
2022-08-20T19:19:40.219Z,19.90
2022-08-20T19:22:08.552Z,19.70
2022-08-20T19:24:43.712Z,19.50
2022-08-20T19:27:13.730Z,19.50
2022-08-20T19:29:49.166Z,19.30
2022-08-20T19:32:22.127Z,19.30
2022-08-20T19:34:56.232Z,19.10
2022-08-20T19:37:38.600Z,18.90
2022-08-20T19:40:35.137Z,18.60
2022-08-20T19:43:15.633Z,18.40
2022-08-20T19:45:49.666Z,18.30
2022-08-20T19:48:44.755Z,18.10
2022-08-20T19:51:25.386Z,18.10
2022-08-20T19:53:53.908Z,18.00
2022-08-20T19:56:27.047Z,18.00
2022-08-20T19:59:07.124Z,18.00
2022-08-20T20:01:36.795Z,18.00
2022-08-20T20:04:08.359Z,17.90
2022-08-20T20:06:42.672Z,17.80
2022-08-20T20:09:22.144Z,17.70
2022-08-20T20:11:56.344Z,17.50
2022-08-20T20:14:30.994Z,17.60
2022-08-20T20:17:00.302Z,17.90
2022-08-20T20:19:28.850Z,17.80
2022-08-20T20:22:19.589Z,17.50
2022-08-20T20:24:58.633Z,17.50
2022-08-20T20:27:29.739Z,17.40
2022-08-20T20:30:03.965Z,17.40
2022-08-20T20:32:33.847Z,17.40
2022-08-20T20:35:06.227Z,17.30
2022-08-20T20:37:50.899Z,17.10
2022-08-20T20:40:26.229Z,17.10
2022-08-20T20:43:05.930Z,17.00
2022-08-20T20:45:38.447Z,16.90
2022-08-20T20:48:19.331Z,16.70
2022-08-20T20:50:49.382Z,16.50
2022-08-20T20:53:50.866Z,16.30
2022-08-20T20:56:36.825Z,16.30
2022-08-20T20:59:09.668Z,16.20
2022-08-20T21:01:50.030Z,16.20
2022-08-20T21:04:21.363Z,16.20
2022-08-20T21:06:49.968Z,16.20
2022-08-20T21:09:19.455Z,16.20
2022-08-20T21:11:48.324Z,15.90
2022-08-20T21:14:18.855Z,15.80
2022-08-20T21:16:47.140Z,15.70
2022-08-20T21:19:16.915Z,15.70
2022-08-20T21:21:45.477Z,15.50
2022-08-20T21:24:13.890Z,15.60
2022-08-20T21:26:42.844Z,15.60
2022-08-20T21:29:16.734Z,15.70
2022-08-20T21:31:47.306Z,15.70
2022-08-20T21:34:17.530Z,15.60
2022-08-20T21:36:46.423Z,15.50
2022-08-20T21:39:15.278Z,15.50
2022-08-20T21:41:46.027Z,15.50
2022-08-20T21:44:22.132Z,15.40
2022-08-20T21:46:57.357Z,15.40
2022-08-20T21:49:27.957Z,15.20
2022-08-20T21:51:56.977Z,15.00
2022-08-20T21:54:26.807Z,15.10
2022-08-20T21:56:59.955Z,14.90
2022-08-20T21:59:28.862Z,14.80
2022-08-20T22:02:00.625Z,14.70
2022-08-20T22:04:31.240Z,14.60
2022-08-20T22:07:04.255Z,14.50
2022-08-20T22:09:36.017Z,14.50
2022-08-20T22:12:06.527Z,14.60
2022-08-20T22:14:34.869Z,14.50
2022-08-20T22:17:04.510Z,14.30
2022-08-20T22:19:32.582Z,14.10
2022-08-20T22:22:00.945Z,14.10
2022-08-20T22:24:30.876Z,14.20
2022-08-20T22:26:59.260Z,14.20
2022-08-20T22:29:27.370Z,14.10
2022-08-20T22:31:55.900Z,14.00
2022-08-20T22:34:25.712Z,14.00
2022-08-20T22:36:55.395Z,14.00
2022-08-20T22:39:23.564Z,14.00
2022-08-20T22:41:51.633Z,14.00
2022-08-20T22:44:20.090Z,13.80
2022-08-20T22:46:52.611Z,13.80
2022-08-20T22:49:31.790Z,13.70
2022-08-20T22:52:00.977Z,13.50
2022-08-20T22:54:29.887Z,13.40
2022-08-20T22:56:57.978Z,13.40
2022-08-20T22:59:26.336Z,13.50
2022-08-20T23:01:55.608Z,13.60
2022-08-20T23:04:28.399Z,13.60
2022-08-20T23:06:58.722Z,13.50
2022-08-20T23:09:27.963Z,13.40
2022-08-20T23:11:58.288Z,13.20
2022-08-20T23:14:27.075Z,13.10
2022-08-20T23:17:02.637Z,13.00
2022-08-20T23:19:32.396Z,12.80
2022-08-20T23:22:00.641Z,12.90
2022-08-20T23:24:28.786Z,12.80
2022-08-20T23:26:57.162Z,12.80
2022-08-20T23:29:26.965Z,12.90
2022-08-20T23:31:56.686Z,12.90
2022-08-20T23:34:26.078Z,12.90
2022-08-20T23:36:57.530Z,13.00
2022-08-20T23:39:27.684Z,12.90
2022-08-20T23:41:56.887Z,12.90
2022-08-20T23:44:27.197Z,12.80
2022-08-20T23:46:58.126Z,12.80
2022-08-20T23:49:27.436Z,12.80
2022-08-20T23:51:57.733Z,12.80
2022-08-20T23:54:25.912Z,12.80
2022-08-20T23:56:56.966Z,12.80
2022-08-20T23:59:26.210Z,12.60
